sensor_id;sensor_type;location;lat;lon;timestamp;temperature;humidity
22202;DHT22;11266;51.522;6.302;2023-06-14T00:00:41;20.30;79.80
22202;DHT22;11266;51.522;6.302;2023-06-14T00:01:28;20.30;79.80
22202;DHT22;11266;51.522;6.302;2023-06-14T00:02:14;20.30;79.60
22202;DHT22;11266;51.522;6.302;2023-06-14T00:03:01;20.30;79.70
22202;DHT22;11266;51.522;6.302;2023-06-14T00:03:47;20.30;79.60
22202;DHT22;11266;51.522;6.302;2023-06-14T00:04:33;20.30;79.70
22202;DHT22;11266;51.522;6.302;2023-06-14T00:05:19;20.30;79.80
22202;DHT22;11266;51.522;6.302;2023-06-14T00:06:04;20.30;79.90
22202;DHT22;11266;51.522;6.302;2023-06-14T00:06:50;20.30;80.20
22202;DHT22;11266;51.522;6.302;2023-06-14T00:07:40;20.30;79.80
22202;DHT22;11266;51.522;6.302;2023-06-14T00:08:29;20.30;80.00
22202;DHT22;11266;51.522;6.302;2023-06-14T00:09:15;20.30;80.20
22202;DHT22;11266;51.522;6.302;2023-06-14T00:10:03;20.20;79.90
22202;DHT22;11266;51.522;6.302;2023-06-14T00:10:50;20.20;80.00
22202;DHT22;11266;51.522;6.302;2023-06-14T00:11:35;20.20;79.90
22202;DHT22;11266;51.522;6.302;2023-06-14T00:12:21;20.20;80.00
22202;DHT22;11266;51.522;6.302;2023-06-14T00:13:07;20.20;80.20
22202;DHT22;11266;51.522;6.302;2023-06-14T00:13:53;20.10;80.30
22202;DHT22;11266;51.522;6.302;2023-06-14T00:14:39;20.00;80.00
22202;DHT22;11266;51.522;6.302;2023-06-14T00:15:25;20.10;80.40
22202;DHT22;11266;51.522;6.302;2023-06-14T00:16:10;20.00;80.30
22202;DHT22;11266;51.522;6.302;2023-06-14T00:16:56;20.00;80.40
22202;DHT22;11266;51.522;6.302;2023-06-14T00:17:43;20.00;80.10
22202;DHT22;11266;51.522;6.302;2023-06-14T00:18:32;20.00;80.20
22202;DHT22;11266;51.522;6.302;2023-06-14T00:19:18;20.00;80.10
22202;DHT22;11266;51.522;6.302;2023-06-14T00:20:05;20.00;80.50
22202;DHT22;11266;51.522;6.302;2023-06-14T00:20:51;20.10;80.50
22202;DHT22;11266;51.522;6.302;2023-06-14T00:21:37;20.00;80.20
22202;DHT22;11266;51.522;6.302;2023-06-14T00:22:24;20.00;80.60
22202;DHT22;11266;51.522;6.302;2023-06-14T00:23:09;20.00;80.80
22202;DHT22;11266;51.522;6.302;2023-06-14T00:23:57;19.90;80.80
22202;DHT22;11266;51.522;6.302;2023-06-14T00:24:42;19.90;80.60
22202;DHT22;11266;51.522;6.302;2023-06-14T00:25:28;20.00;80.30
22202;DHT22;11266;51.522;6.302;2023-06-14T00:26:14;20.00;80.50
22202;DHT22;11266;51.522;6.302;2023-06-14T00:27:01;19.90;80.40
22202;DHT22;11266;51.522;6.302;2023-06-14T00:27:47;19.90;80.40
22202;DHT22;11266;51.522;6.302;2023-06-14T00:28:32;19.90;80.70
22202;DHT22;11266;51.522;6.302;2023-06-14T00:29:18;19.90;80.50
22202;DHT22;11266;51.522;6.302;2023-06-14T00:30:04;19.90;80.40
22202;DHT22;11266;51.522;6.302;2023-06-14T00:30:49;19.80;80.80
22202;DHT22;11266;51.522;6.302;2023-06-14T00:31:35;19.80;81.10
22202;DHT22;11266;51.522;6.302;2023-06-14T00:32:21;19.80;80.70
22202;DHT22;11266;51.522;6.302;2023-06-14T00:33:10;19.80;81.50
22202;DHT22;11266;51.522;6.302;2023-06-14T00:33:56;19.70;81.50
22202;DHT22;11266;51.522;6.302;2023-06-14T00:34:41;19.70;81.20
22202;DHT22;11266;51.522;6.302;2023-06-14T00:35:27;19.70;81.60
22202;DHT22;11266;51.522;6.302;2023-06-14T00:36:13;19.70;81.30
22202;DHT22;11266;51.522;6.302;2023-06-14T00:36:59;19.70;80.90
22202;DHT22;11266;51.522;6.302;2023-06-14T00:37:44;19.70;81.00
22202;DHT22;11266;51.522;6.302;2023-06-14T00:38:30;19.70;81.30
22202;DHT22;11266;51.522;6.302;2023-06-14T00:39:15;19.60;81.20
22202;DHT22;11266;51.522;6.302;2023-06-14T00:40:01;19.60;80.90
22202;DHT22;11266;51.522;6.302;2023-06-14T00:40:47;19.60;81.10
22202;DHT22;11266;51.522;6.302;2023-06-14T00:41:32;19.70;81.00
22202;DHT22;11266;51.522;6.302;2023-06-14T00:42:27;19.70;81.30
22202;DHT22;11266;51.522;6.302;2023-06-14T00:43:13;19.70;80.90
22202;DHT22;11266;51.522;6.302;2023-06-14T00:43:58;19.70;80.90
22202;DHT22;11266;51.522;6.302;2023-06-14T00:44:45;19.70;80.90
22202;DHT22;11266;51.522;6.302;2023-06-14T00:45:30;19.70;81.00
22202;DHT22;11266;51.522;6.302;2023-06-14T00:46:16;19.70;80.90
22202;DHT22;11266;51.522;6.302;2023-06-14T00:47:02;19.70;80.90
22202;DHT22;11266;51.522;6.302;2023-06-14T00:47:50;19.60;80.80
22202;DHT22;11266;51.522;6.302;2023-06-14T00:48:39;19.60;80.80
22202;DHT22;11266;51.522;6.302;2023-06-14T00:49:25;19.60;81.10
22202;DHT22;11266;51.522;6.302;2023-06-14T00:50:11;19.60;81.60
22202;DHT22;11266;51.522;6.302;2023-06-14T00:50:57;19.60;81.40
22202;DHT22;11266;51.522;6.302;2023-06-14T00:51:43;19.60;81.20
22202;DHT22;11266;51.522;6.302;2023-06-14T00:52:29;19.60;81.20
22202;DHT22;11266;51.522;6.302;2023-06-14T00:53:16;19.60;81.30
22202;DHT22;11266;51.522;6.302;2023-06-14T00:54:02;19.50;80.90
22202;DHT22;11266;51.522;6.302;2023-06-14T00:54:48;19.60;81.10
22202;DHT22;11266;51.522;6.302;2023-06-14T00:55:34;19.50;81.30
22202;DHT22;11266;51.522;6.302;2023-06-14T00:56:19;19.50;81.20
22202;DHT22;11266;51.522;6.302;2023-06-14T00:57:06;19.50;81.40
22202;DHT22;11266;51.522;6.302;2023-06-14T00:57:53;19.50;81.70
22202;DHT22;11266;51.522;6.302;2023-06-14T00:58:40;19.50;81.30
22202;DHT22;11266;51.522;6.302;2023-06-14T00:59:26;19.50;81.60
22202;DHT22;11266;51.522;6.302;2023-06-14T01:00:12;19.50;81.50
22202;DHT22;11266;51.522;6.302;2023-06-14T01:00:58;19.40;81.40
22202;DHT22;11266;51.522;6.302;2023-06-14T01:01:43;19.40;82.00
22202;DHT22;11266;51.522;6.302;2023-06-14T01:02:30;19.40;82.20
22202;DHT22;11266;51.522;6.302;2023-06-14T01:03:15;19.40;82.00
22202;DHT22;11266;51.522;6.302;2023-06-14T01:04:07;19.40;82.00
22202;DHT22;11266;51.522;6.302;2023-06-14T01:04:53;19.40;81.80
22202;DHT22;11266;51.522;6.302;2023-06-14T01:05:39;19.30;81.70
22202;DHT22;11266;51.522;6.302;2023-06-14T01:06:32;19.30;81.90
22202;DHT22;11266;51.522;6.302;2023-06-14T01:07:35;19.30;81.90
22202;DHT22;11266;51.522;6.302;2023-06-14T01:08:49;19.30;81.70
22202;DHT22;11266;51.522;6.302;2023-06-14T01:09:48;19.30;82.00
22202;DHT22;11266;51.522;6.302;2023-06-14T01:12:21;19.30;81.90
22202;DHT22;11266;51.522;6.302;2023-06-14T01:14:00;19.20;82.00
22202;DHT22;11266;51.522;6.302;2023-06-14T01:14:48;19.20;82.10
22202;DHT22;11266;51.522;6.302;2023-06-14T01:15:35;19.20;82.00
22202;DHT22;11266;51.522;6.302;2023-06-14T01:16:22;19.20;82.60
22202;DHT22;11266;51.522;6.302;2023-06-14T01:17:08;19.20;82.00
22202;DHT22;11266;51.522;6.302;2023-06-14T01:18:00;19.10;82.30
22202;DHT22;11266;51.522;6.302;2023-06-14T01:18:52;19.10;82.10
22202;DHT22;11266;51.522;6.302;2023-06-14T01:19:42;19.10;82.10
22202;DHT22;11266;51.522;6.302;2023-06-14T01:20:29;19.10;82.10
22202;DHT22;11266;51.522;6.302;2023-06-14T01:21:23;19.10;82.60
22202;DHT22;11266;51.522;6.302;2023-06-14T01:22:09;19.10;82.20
22202;DHT22;11266;51.522;6.302;2023-06-14T01:22:55;19.10;82.80
22202;DHT22;11266;51.522;6.302;2023-06-14T01:23:40;19.10;82.90
22202;DHT22;11266;51.522;6.302;2023-06-14T01:24:26;19.10;82.40
22202;DHT22;11266;51.522;6.302;2023-06-14T01:25:17;19.00;83.10
22202;DHT22;11266;51.522;6.302;2023-06-14T01:26:06;19.00;82.70
22202;DHT22;11266;51.522;6.302;2023-06-14T01:26:53;19.00;82.50
22202;DHT22;11266;51.522;6.302;2023-06-14T01:27:41;19.00;82.60
22202;DHT22;11266;51.522;6.302;2023-06-14T01:28:27;19.00;82.50
22202;DHT22;11266;51.522;6.302;2023-06-14T01:29:17;19.00;82.60
22202;DHT22;11266;51.522;6.302;2023-06-14T01:30:05;18.90;82.50
22202;DHT22;11266;51.522;6.302;2023-06-14T01:30:52;19.00;83.10
22202;DHT22;11266;51.522;6.302;2023-06-14T01:31:38;18.90;82.50
22202;DHT22;11266;51.522;6.302;2023-06-14T01:32:27;18.90;82.60
22202;DHT22;11266;51.522;6.302;2023-06-14T01:33:16;18.90;82.50
22202;DHT22;11266;51.522;6.302;2023-06-14T01:34:02;18.90;83.00
22202;DHT22;11266;51.522;6.302;2023-06-14T01:34:48;18.90;83.30
22202;DHT22;11266;51.522;6.302;2023-06-14T01:35:34;18.90;83.20
22202;DHT22;11266;51.522;6.302;2023-06-14T01:36:21;18.80;82.90
22202;DHT22;11266;51.522;6.302;2023-06-14T01:37:08;18.80;83.20
22202;DHT22;11266;51.522;6.302;2023-06-14T01:37:54;18.80;83.00
22202;DHT22;11266;51.522;6.302;2023-06-14T01:38:42;18.80;83.10
22202;DHT22;11266;51.522;6.302;2023-06-14T01:39:29;18.80;83.00
22202;DHT22;11266;51.522;6.302;2023-06-14T01:40:16;18.80;83.80
22202;DHT22;11266;51.522;6.302;2023-06-14T01:41:03;18.80;83.00
22202;DHT22;11266;51.522;6.302;2023-06-14T01:41:49;18.80;83.10
22202;DHT22;11266;51.522;6.302;2023-06-14T01:42:38;18.70;83.50
22202;DHT22;11266;51.522;6.302;2023-06-14T01:43:23;18.70;83.10
22202;DHT22;11266;51.522;6.302;2023-06-14T01:44:10;18.70;83.00
22202;DHT22;11266;51.522;6.302;2023-06-14T01:44:57;18.70;83.20
22202;DHT22;11266;51.522;6.302;2023-06-14T01:45:45;18.70;84.10
22202;DHT22;11266;51.522;6.302;2023-06-14T01:46:31;18.70;84.20
22202;DHT22;11266;51.522;6.302;2023-06-14T01:47:16;18.70;83.40
22202;DHT22;11266;51.522;6.302;2023-06-14T01:48:02;18.70;83.50
22202;DHT22;11266;51.522;6.302;2023-06-14T01:48:48;18.60;83.80
22202;DHT22;11266;51.522;6.302;2023-06-14T01:49:34;18.60;83.50
22202;DHT22;11266;51.522;6.302;2023-06-14T01:50:20;18.60;83.30
22202;DHT22;11266;51.522;6.302;2023-06-14T01:51:06;18.60;84.10
22202;DHT22;11266;51.522;6.302;2023-06-14T01:51:51;18.50;83.90
22202;DHT22;11266;51.522;6.302;2023-06-14T01:52:37;18.50;84.30
22202;DHT22;11266;51.522;6.302;2023-06-14T01:53:23;18.50;83.50
22202;DHT22;11266;51.522;6.302;2023-06-14T01:54:09;18.50;83.50
22202;DHT22;11266;51.522;6.302;2023-06-14T01:54:54;18.50;83.70
22202;DHT22;11266;51.522;6.302;2023-06-14T01:55:40;18.50;83.50
22202;DHT22;11266;51.522;6.302;2023-06-14T01:56:28;18.50;83.70
22202;DHT22;11266;51.522;6.302;2023-06-14T01:57:13;18.50;83.60
22202;DHT22;11266;51.522;6.302;2023-06-14T01:58:00;18.50;83.30
22202;DHT22;11266;51.522;6.302;2023-06-14T01:58:45;18.40;83.80
22202;DHT22;11266;51.522;6.302;2023-06-14T01:59:31;18.50;83.50
22202;DHT22;11266;51.522;6.302;2023-06-14T02:00:16;18.50;83.30
22202;DHT22;11266;51.522;6.302;2023-06-14T02:01:03;18.50;83.50
22202;DHT22;11266;51.522;6.302;2023-06-14T02:01:49;18.50;83.30
22202;DHT22;11266;51.522;6.302;2023-06-14T02:02:34;18.50;83.70
22202;DHT22;11266;51.522;6.302;2023-06-14T02:03:20;18.40;83.30
22202;DHT22;11266;51.522;6.302;2023-06-14T02:04:05;18.50;83.60
22202;DHT22;11266;51.522;6.302;2023-06-14T02:04:51;18.40;83.60
22202;DHT22;11266;51.522;6.302;2023-06-14T02:05:37;18.50;83.40
22202;DHT22;11266;51.522;6.302;2023-06-14T02:06:26;18.40;84.10
22202;DHT22;11266;51.522;6.302;2023-06-14T02:07:12;18.40;83.50
22202;DHT22;11266;51.522;6.302;2023-06-14T02:07:57;18.40;83.80
22202;DHT22;11266;51.522;6.302;2023-06-14T02:08:43;18.40;83.50
22202;DHT22;11266;51.522;6.302;2023-06-14T02:09:29;18.40;83.40
22202;DHT22;11266;51.522;6.302;2023-06-14T02:10:14;18.40;83.50
22202;DHT22;11266;51.522;6.302;2023-06-14T02:11:00;18.40;84.10
22202;DHT22;11266;51.522;6.302;2023-06-14T02:11:46;18.30;83.80
22202;DHT22;11266;51.522;6.302;2023-06-14T02:12:32;18.30;84.40
22202;DHT22;11266;51.522;6.302;2023-06-14T02:13:17;18.30;83.70
22202;DHT22;11266;51.522;6.302;2023-06-14T02:14:03;18.30;83.70
22202;DHT22;11266;51.522;6.302;2023-06-14T02:14:48;18.30;84.40
22202;DHT22;11266;51.522;6.302;2023-06-14T02:15:34;18.20;84.70
22202;DHT22;11266;51.522;6.302;2023-06-14T02:16:20;18.20;84.20
22202;DHT22;11266;51.522;6.302;2023-06-14T02:17:07;18.20;84.40
22202;DHT22;11266;51.522;6.302;2023-06-14T02:17:53;18.20;84.90
22202;DHT22;11266;51.522;6.302;2023-06-14T02:18:39;18.20;84.70
22202;DHT22;11266;51.522;6.302;2023-06-14T02:19:24;18.10;84.40
22202;DHT22;11266;51.522;6.302;2023-06-14T02:20:11;18.10;84.10
22202;DHT22;11266;51.522;6.302;2023-06-14T02:20:56;18.10;84.60
22202;DHT22;11266;51.522;6.302;2023-06-14T02:21:42;18.10;84.10
22202;DHT22;11266;51.522;6.302;2023-06-14T02:22:28;18.10;84.50
22202;DHT22;11266;51.522;6.302;2023-06-14T02:23:14;18.10;84.90
22202;DHT22;11266;51.522;6.302;2023-06-14T02:24:00;18.10;84.20
22202;DHT22;11266;51.522;6.302;2023-06-14T02:24:47;18.00;84.30
22202;DHT22;11266;51.522;6.302;2023-06-14T02:25:32;18.10;84.10
22202;DHT22;11266;51.522;6.302;2023-06-14T02:26:18;18.00;84.30
22202;DHT22;11266;51.522;6.302;2023-06-14T02:27:04;18.00;84.90
22202;DHT22;11266;51.522;6.302;2023-06-14T02:27:50;18.00;85.00
22202;DHT22;11266;51.522;6.302;2023-06-14T02:28:35;18.00;84.20
22202;DHT22;11266;51.522;6.302;2023-06-14T02:29:21;18.00;84.00
22202;DHT22;11266;51.522;6.302;2023-06-14T02:30:07;18.00;84.60
22202;DHT22;11266;51.522;6.302;2023-06-14T02:30:53;18.00;83.90
22202;DHT22;11266;51.522;6.302;2023-06-14T02:31:40;18.00;84.20
22202;DHT22;11266;51.522;6.302;2023-06-14T02:32:25;18.00;85.20
22202;DHT22;11266;51.522;6.302;2023-06-14T02:33:12;18.00;84.70
22202;DHT22;11266;51.522;6.302;2023-06-14T02:33:58;18.00;84.30
22202;DHT22;11266;51.522;6.302;2023-06-14T02:34:44;17.90;84.40
22202;DHT22;11266;51.522;6.302;2023-06-14T02:35:30;18.00;84.90
22202;DHT22;11266;51.522;6.302;2023-06-14T02:36:15;18.00;84.70
22202;DHT22;11266;51.522;6.302;2023-06-14T02:37:01;17.90;84.30
22202;DHT22;11266;51.522;6.302;2023-06-14T02:37:48;17.90;84.30
22202;DHT22;11266;51.522;6.302;2023-06-14T02:38:33;17.90;85.30
22202;DHT22;11266;51.522;6.302;2023-06-14T02:39:19;17.90;84.50
22202;DHT22;11266;51.522;6.302;2023-06-14T02:40:06;17.90;84.50
22202;DHT22;11266;51.522;6.302;2023-06-14T02:40:54;17.90;84.50
22202;DHT22;11266;51.522;6.302;2023-06-14T02:41:40;17.90;84.70
22202;DHT22;11266;51.522;6.302;2023-06-14T02:42:25;17.90;84.30
22202;DHT22;11266;51.522;6.302;2023-06-14T02:43:11;17.90;84.50
22202;DHT22;11266;51.522;6.302;2023-06-14T02:43:56;17.90;84.40
22202;DHT22;11266;51.522;6.302;2023-06-14T02:44:44;17.80;85.10
22202;DHT22;11266;51.522;6.302;2023-06-14T02:45:30;17.80;85.40
22202;DHT22;11266;51.522;6.302;2023-06-14T02:46:16;17.80;84.50
22202;DHT22;11266;51.522;6.302;2023-06-14T02:47:01;17.80;84.40
22202;DHT22;11266;51.522;6.302;2023-06-14T02:47:47;17.80;85.20
22202;DHT22;11266;51.522;6.302;2023-06-14T02:48:32;17.80;84.70
22202;DHT22;11266;51.522;6.302;2023-06-14T02:49:18;17.80;85.40
22202;DHT22;11266;51.522;6.302;2023-06-14T02:50:04;17.80;85.20
22202;DHT22;11266;51.522;6.302;2023-06-14T02:50:50;17.80;84.80
22202;DHT22;11266;51.522;6.302;2023-06-14T02:51:36;17.80;85.30
22202;DHT22;11266;51.522;6.302;2023-06-14T02:52:22;17.80;84.90
22202;DHT22;11266;51.522;6.302;2023-06-14T02:53:07;17.80;84.90
22202;DHT22;11266;51.522;6.302;2023-06-14T02:53:53;17.80;85.40
22202;DHT22;11266;51.522;6.302;2023-06-14T02:54:38;17.80;84.90
22202;DHT22;11266;51.522;6.302;2023-06-14T02:55:25;17.70;84.70
22202;DHT22;11266;51.522;6.302;2023-06-14T02:56:11;17.70;84.90
22202;DHT22;11266;51.522;6.302;2023-06-14T02:56:57;17.70;85.00
22202;DHT22;11266;51.522;6.302;2023-06-14T02:57:42;17.70;84.60
22202;DHT22;11266;51.522;6.302;2023-06-14T02:58:29;17.70;84.60
22202;DHT22;11266;51.522;6.302;2023-06-14T02:59:14;17.70;85.40
22202;DHT22;11266;51.522;6.302;2023-06-14T03:00:00;17.70;85.00
22202;DHT22;11266;51.522;6.302;2023-06-14T03:00:46;17.60;84.80
22202;DHT22;11266;51.522;6.302;2023-06-14T03:01:31;17.60;85.00
22202;DHT22;11266;51.522;6.302;2023-06-14T03:02:19;17.60;84.80
22202;DHT22;11266;51.522;6.302;2023-06-14T03:03:05;17.60;85.20
22202;DHT22;11266;51.522;6.302;2023-06-14T03:03:57;17.60;85.70
22202;DHT22;11266;51.522;6.302;2023-06-14T03:04:43;17.60;86.20
22202;DHT22;11266;51.522;6.302;2023-06-14T03:05:29;17.60;86.00
22202;DHT22;11266;51.522;6.302;2023-06-14T03:06:15;17.60;85.90
22202;DHT22;11266;51.522;6.302;2023-06-14T03:07:02;17.50;85.50
22202;DHT22;11266;51.522;6.302;2023-06-14T03:07:48;17.50;85.40
22202;DHT22;11266;51.522;6.302;2023-06-14T03:08:35;17.50;85.30
22202;DHT22;11266;51.522;6.302;2023-06-14T03:09:24;17.50;85.40
22202;DHT22;11266;51.522;6.302;2023-06-14T03:10:09;17.50;85.00
22202;DHT22;11266;51.522;6.302;2023-06-14T03:10:55;17.50;85.30
22202;DHT22;11266;51.522;6.302;2023-06-14T03:11:41;17.50;85.70
22202;DHT22;11266;51.522;6.302;2023-06-14T03:12:27;17.50;85.20
22202;DHT22;11266;51.522;6.302;2023-06-14T03:13:15;17.50;85.50
22202;DHT22;11266;51.522;6.302;2023-06-14T03:14:01;17.50;85.80
22202;DHT22;11266;51.522;6.302;2023-06-14T03:14:49;17.50;85.50
22202;DHT22;11266;51.522;6.302;2023-06-14T03:15:36;17.50;85.70
22202;DHT22;11266;51.522;6.302;2023-06-14T03:16:21;17.50;85.60
22202;DHT22;11266;51.522;6.302;2023-06-14T03:17:09;17.50;85.90
22202;DHT22;11266;51.522;6.302;2023-06-14T03:17:55;17.40;86.20
22202;DHT22;11266;51.522;6.302;2023-06-14T03:18:40;17.40;85.70
22202;DHT22;11266;51.522;6.302;2023-06-14T03:19:26;17.40;86.00
22202;DHT22;11266;51.522;6.302;2023-06-14T03:20:11;17.30;86.60
22202;DHT22;11266;51.522;6.302;2023-06-14T03:20:57;17.40;86.00
22202;DHT22;11266;51.522;6.302;2023-06-14T03:21:43;17.30;85.70
22202;DHT22;11266;51.522;6.302;2023-06-14T03:22:29;17.40;85.70
22202;DHT22;11266;51.522;6.302;2023-06-14T03:23:16;17.30;86.00
22202;DHT22;11266;51.522;6.302;2023-06-14T03:24:01;17.30;85.90
22202;DHT22;11266;51.522;6.302;2023-06-14T03:24:48;17.40;86.40
22202;DHT22;11266;51.522;6.302;2023-06-14T03:25:33;17.40;86.00
22202;DHT22;11266;51.522;6.302;2023-06-14T03:26:21;17.30;85.70
22202;DHT22;11266;51.522;6.302;2023-06-14T03:27:07;17.30;85.80
22202;DHT22;11266;51.522;6.302;2023-06-14T03:27:56;17.30;86.10
22202;DHT22;11266;51.522;6.302;2023-06-14T03:28:41;17.40;85.90
22202;DHT22;11266;51.522;6.302;2023-06-14T03:29:27;17.30;85.90
22202;DHT22;11266;51.522;6.302;2023-06-14T03:30:13;17.30;85.80
22202;DHT22;11266;51.522;6.302;2023-06-14T03:30:58;17.30;85.90
22202;DHT22;11266;51.522;6.302;2023-06-14T03:31:58;17.30;85.90
22202;DHT22;11266;51.522;6.302;2023-06-14T03:32:44;17.30;86.40
22202;DHT22;11266;51.522;6.302;2023-06-14T03:33:30;17.20;86.80
22202;DHT22;11266;51.522;6.302;2023-06-14T03:34:15;17.20;86.60
22202;DHT22;11266;51.522;6.302;2023-06-14T03:35:03;17.20;86.90
22202;DHT22;11266;51.522;6.302;2023-06-14T03:35:49;17.20;85.90
22202;DHT22;11266;51.522;6.302;2023-06-14T03:36:35;17.20;86.10
22202;DHT22;11266;51.522;6.302;2023-06-14T03:37:20;17.30;86.30
22202;DHT22;11266;51.522;6.302;2023-06-14T03:38:06;17.20;85.90
22202;DHT22;11266;51.522;6.302;2023-06-14T03:38:51;17.20;86.50
22202;DHT22;11266;51.522;6.302;2023-06-14T03:39:37;17.20;86.30
22202;DHT22;11266;51.522;6.302;2023-06-14T03:40:22;17.20;86.00
22202;DHT22;11266;51.522;6.302;2023-06-14T03:41:11;17.20;86.20
22202;DHT22;11266;51.522;6.302;2023-06-14T03:41:56;17.20;86.10
22202;DHT22;11266;51.522;6.302;2023-06-14T03:42:42;17.30;86.20
22202;DHT22;11266;51.522;6.302;2023-06-14T03:43:27;17.20;86.60
22202;DHT22;11266;51.522;6.302;2023-06-14T03:44:17;17.30;86.90
22202;DHT22;11266;51.522;6.302;2023-06-14T03:45:04;17.30;86.50
22202;DHT22;11266;51.522;6.302;2023-06-14T03:45:50;17.20;86.60
22202;DHT22;11266;51.522;6.302;2023-06-14T03:46:36;17.20;86.30
22202;DHT22;11266;51.522;6.302;2023-06-14T03:47:21;17.20;86.60
22202;DHT22;11266;51.522;6.302;2023-06-14T03:48:09;17.20;86.00
22202;DHT22;11266;51.522;6.302;2023-06-14T03:48:54;17.20;86.90
22202;DHT22;11266;51.522;6.302;2023-06-14T03:49:41;17.20;86.50
22202;DHT22;11266;51.522;6.302;2023-06-14T03:50:26;17.20;86.40
22202;DHT22;11266;51.522;6.302;2023-06-14T03:51:12;17.20;86.30
22202;DHT22;11266;51.522;6.302;2023-06-14T03:51:58;17.20;86.80
22202;DHT22;11266;51.522;6.302;2023-06-14T03:52:44;17.20;87.50
22202;DHT22;11266;51.522;6.302;2023-06-14T03:53:30;17.20;86.60
22202;DHT22;11266;51.522;6.302;2023-06-14T03:54:16;17.10;87.50
22202;DHT22;11266;51.522;6.302;2023-06-14T03:55:01;17.10;87.30
22202;DHT22;11266;51.522;6.302;2023-06-14T03:55:48;17.10;86.80
22202;DHT22;11266;51.522;6.302;2023-06-14T03:56:33;17.20;86.70
22202;DHT22;11266;51.522;6.302;2023-06-14T03:57:20;17.10;86.60
22202;DHT22;11266;51.522;6.302;2023-06-14T03:58:05;17.20;86.50
22202;DHT22;11266;51.522;6.302;2023-06-14T03:58:51;17.20;86.90
22202;DHT22;11266;51.522;6.302;2023-06-14T03:59:36;17.20;86.50
22202;DHT22;11266;51.522;6.302;2023-06-14T04:00:22;17.20;86.50
22202;DHT22;11266;51.522;6.302;2023-06-14T04:01:08;17.20;86.70
22202;DHT22;11266;51.522;6.302;2023-06-14T04:01:54;17.20;87.10
22202;DHT22;11266;51.522;6.302;2023-06-14T04:02:40;17.20;87.20
22202;DHT22;11266;51.522;6.302;2023-06-14T04:03:25;17.30;86.80
22202;DHT22;11266;51.522;6.302;2023-06-14T04:04:14;17.20;87.10
22202;DHT22;11266;51.522;6.302;2023-06-14T04:05:02;17.20;87.00
22202;DHT22;11266;51.522;6.302;2023-06-14T04:05:48;17.30;86.70
22202;DHT22;11266;51.522;6.302;2023-06-14T04:06:34;17.30;86.30
22202;DHT22;11266;51.522;6.302;2023-06-14T04:07:20;17.30;86.40
22202;DHT22;11266;51.522;6.302;2023-06-14T04:08:05;17.40;86.80
22202;DHT22;11266;51.522;6.302;2023-06-14T04:08:54;17.40;87.50
22202;DHT22;11266;51.522;6.302;2023-06-14T04:09:40;17.40;87.10
22202;DHT22;11266;51.522;6.302;2023-06-14T04:10:26;17.50;87.70
22202;DHT22;11266;51.522;6.302;2023-06-14T04:11:12;17.50;87.20
22202;DHT22;11266;51.522;6.302;2023-06-14T04:11:58;17.50;87.00
22202;DHT22;11266;51.522;6.302;2023-06-14T04:12:43;17.60;87.10
22202;DHT22;11266;51.522;6.302;2023-06-14T04:13:29;17.60;87.20
22202;DHT22;11266;51.522;6.302;2023-06-14T04:14:14;17.70;87.60
22202;DHT22;11266;51.522;6.302;2023-06-14T04:15:00;17.70;87.70
22202;DHT22;11266;51.522;6.302;2023-06-14T04:15:46;17.70;87.00
22202;DHT22;11266;51.522;6.302;2023-06-14T04:16:31;17.80;87.00
22202;DHT22;11266;51.522;6.302;2023-06-14T04:17:17;17.80;86.80
22202;DHT22;11266;51.522;6.302;2023-06-14T04:18:03;17.80;86.70
22202;DHT22;11266;51.522;6.302;2023-06-14T04:18:48;17.90;86.80
22202;DHT22;11266;51.522;6.302;2023-06-14T04:19:36;17.90;86.60
22202;DHT22;11266;51.522;6.302;2023-06-14T04:20:22;18.00;86.80
22202;DHT22;11266;51.522;6.302;2023-06-14T04:21:09;18.00;86.60
22202;DHT22;11266;51.522;6.302;2023-06-14T04:21:54;18.10;86.50
22202;DHT22;11266;51.522;6.302;2023-06-14T04:22:40;18.10;86.90
22202;DHT22;11266;51.522;6.302;2023-06-14T04:23:26;18.20;86.60
22202;DHT22;11266;51.522;6.302;2023-06-14T04:24:13;18.30;86.40
22202;DHT22;11266;51.522;6.302;2023-06-14T04:24:59;18.30;86.10
22202;DHT22;11266;51.522;6.302;2023-06-14T04:25:44;18.30;86.50
22202;DHT22;11266;51.522;6.302;2023-06-14T04:26:34;18.30;86.20
22202;DHT22;11266;51.522;6.302;2023-06-14T04:27:20;18.40;86.00
22202;DHT22;11266;51.522;6.302;2023-06-14T04:28:06;18.50;85.80
22202;DHT22;11266;51.522;6.302;2023-06-14T04:28:56;18.50;85.80
22202;DHT22;11266;51.522;6.302;2023-06-14T04:29:46;18.50;86.10
22202;DHT22;11266;51.522;6.302;2023-06-14T04:30:38;18.60;85.70
22202;DHT22;11266;51.522;6.302;2023-06-14T04:31:25;18.60;85.60
22202;DHT22;11266;51.522;6.302;2023-06-14T04:32:11;18.70;85.40
22202;DHT22;11266;51.522;6.302;2023-06-14T04:32:58;18.70;85.50
22202;DHT22;11266;51.522;6.302;2023-06-14T04:33:45;18.80;85.50
22202;DHT22;11266;51.522;6.302;2023-06-14T04:34:32;18.80;85.50
22202;DHT22;11266;51.522;6.302;2023-06-14T04:35:19;18.80;85.60
22202;DHT22;11266;51.522;6.302;2023-06-14T04:36:05;18.90;85.30
22202;DHT22;11266;51.522;6.302;2023-06-14T04:36:52;19.00;85.30
22202;DHT22;11266;51.522;6.302;2023-06-14T04:37:40;19.00;85.50
22202;DHT22;11266;51.522;6.302;2023-06-14T04:38:26;19.00;85.00
22202;DHT22;11266;51.522;6.302;2023-06-14T04:39:13;19.00;85.20
22202;DHT22;11266;51.522;6.302;2023-06-14T04:39:59;19.00;85.20
22202;DHT22;11266;51.522;6.302;2023-06-14T04:40:44;19.10;85.00
22202;DHT22;11266;51.522;6.302;2023-06-14T04:41:31;19.20;84.90
22202;DHT22;11266;51.522;6.302;2023-06-14T04:42:17;19.20;84.80
22202;DHT22;11266;51.522;6.302;2023-06-14T04:43:05;19.20;84.90
22202;DHT22;11266;51.522;6.302;2023-06-14T04:43:52;19.30;85.10
22202;DHT22;11266;51.522;6.302;2023-06-14T04:44:38;19.30;85.00
22202;DHT22;11266;51.522;6.302;2023-06-14T04:45:25;19.30;84.80
22202;DHT22;11266;51.522;6.302;2023-06-14T04:46:16;19.40;85.00
22202;DHT22;11266;51.522;6.302;2023-06-14T04:47:02;19.50;84.60
22202;DHT22;11266;51.522;6.302;2023-06-14T04:47:48;19.50;84.50
22202;DHT22;11266;51.522;6.302;2023-06-14T04:48:33;19.60;84.50
22202;DHT22;11266;51.522;6.302;2023-06-14T04:49:19;19.60;84.40
22202;DHT22;11266;51.522;6.302;2023-06-14T04:50:05;19.60;84.60
22202;DHT22;11266;51.522;6.302;2023-06-14T04:50:50;19.70;84.50
22202;DHT22;11266;51.522;6.302;2023-06-14T04:51:38;19.70;84.70
22202;DHT22;11266;51.522;6.302;2023-06-14T04:52:24;19.70;84.20
22202;DHT22;11266;51.522;6.302;2023-06-14T04:53:11;19.80;84.50
22202;DHT22;11266;51.522;6.302;2023-06-14T04:53:58;19.90;84.30
22202;DHT22;11266;51.522;6.302;2023-06-14T04:54:44;19.80;84.10
22202;DHT22;11266;51.522;6.302;2023-06-14T04:55:30;19.90;84.00
22202;DHT22;11266;51.522;6.302;2023-06-14T04:56:16;20.00;84.10
22202;DHT22;11266;51.522;6.302;2023-06-14T04:57:03;20.10;84.20